Time;durP1;ratioP1;P1;durP2;ratioP2;P2;SDS_P1;SDS_P2;PMS_P1;PMS_P2;Temp;Humidity;BMP_temperature;BMP_pressure;BME280_temperature;BME280_humidity;BME280_pressure;Samples;Min_cycle;Max_cycle;Signal;HPM_P1;HPM_P2
2023/06/25 00:00:36;;;;;;;11.60;5.38;;;;;;;;;;4990104;28;98652;-77
2023/06/25 00:03:03;;;;;;;;;;;;;;;;;;4993724;28;99176;-76
2023/06/25 00:05:29;;;;;;;10.55;5.53;;;;;;;;;;4974369;28;100804;-76
2023/06/25 00:07:56;;;;;;;9.88;5.25;;;;;;;;;;4975057;28;101193;-76
2023/06/25 00:10:26;;;;;;;10.52;5.22;;;;;;;;;;4989755;28;99267;-76
2023/06/25 00:12:52;;;;;;;12.55;7.45;;;;;;;;;;4995385;28;98819;-76
2023/06/25 00:15:19;;;;;;;11.27;6.15;;;;;;;;;;4990301;28;100244;-76
2023/06/25 00:17:47;;;;;;;11.07;6.30;;;;;;;;;;4991694;28;98619;-77
2023/06/25 00:20:15;;;;;;;11.57;6.57;;;;;;;;;;4965982;28;98814;-76
2023/06/25 00:22:45;;;;;;;10.68;5.57;;;;;;;;;;4969054;28;99014;-76
2023/06/25 00:25:31;;;;;;;12.38;5.43;;;;;;;;;;4985797;28;98566;-76
2023/06/25 00:28:00;;;;;;;10.95;6.18;;;;;;;;;;4986285;28;98926;-76
2023/06/25 00:30:27;;;;;;;10.25;5.97;;;;;;;;;;4983437;28;100323;-75
2023/06/25 00:32:56;;;;;;;9.65;5.32;;;;;;;;;;4990282;28;98607;-75
2023/06/25 00:35:26;;;;;;;11.15;6.20;;;;;;;;;;4954719;28;99909;-75
2023/06/25 00:37:57;;;;;;;12.00;7.05;;;;;;;;;;4969778;28;100940;-75
2023/06/25 00:40:25;;;;;;;13.55;6.95;;;;;;;;;;4964411;28;99220;-75
2023/06/25 00:42:56;;;;;;;12.57;6.07;;;;;;;;;;4963528;28;98738;-75
2023/06/25 00:45:26;;;;;;;11.15;6.00;;;;;;;;;;4961218;28;98991;-75
2023/06/25 00:47:54;;;;;;;9.48;5.30;;;;;;;;;;4970994;28;100983;-75
2023/06/25 00:50:25;;;;;;;;;;;;;;;;;;4986039;28;98981;-75
2023/06/25 00:52:52;;;;;;;11.15;6.22;;;;;;;;;;4979877;28;99185;-75
2023/06/25 00:55:19;;;;;;;10.70;5.20;;;;;;;;;;4981302;28;100076;-75
2023/06/25 00:57:46;;;;;;;8.68;4.82;;;;;;;;;;5001867;28;98975;-76
2023/06/25 01:00:14;;;;;;;11.10;6.07;;;;;;;;;;4985526;28;100253;-75
2023/06/25 01:02:46;;;;;;;10.75;6.22;;;;;;;;;;4995237;28;101789;-75
2023/06/25 01:05:13;;;;;;;11.50;6.45;;;;;;;;;;4985601;28;98896;-75
2023/06/25 01:07:43;;;;;;;10.38;5.95;;;;;;;;;;4986500;28;99651;-74
2023/06/25 01:10:13;;;;;;;12.15;6.38;;;;;;;;;;4986211;28;100197;-75
2023/06/25 01:12:40;;;;;;;14.27;7.57;;;;;;;;;;4990350;28;98261;-74
2023/06/25 01:15:09;;;;;;;14.77;6.47;;;;;;;;;;4989627;28;98536;-77
2023/06/25 01:17:39;;;;;;;12.85;7.57;;;;;;;;;;4995170;28;102050;-75
2023/06/25 01:20:11;;;;;;;12.48;6.82;;;;;;;;;;4976919;28;99492;-76
2023/06/25 01:22:39;;;;;;;13.05;7.05;;;;;;;;;;4994041;28;100186;-76
2023/06/25 01:25:06;;;;;;;12.45;7.20;;;;;;;;;;4992898;28;98551;-75
2023/06/25 01:27:33;;;;;;;12.00;6.30;;;;;;;;;;4993290;28;101042;-76
2023/06/25 01:30:01;;;;;;;10.48;5.85;;;;;;;;;;4993633;28;99353;-76
2023/06/25 01:32:28;;;;;;;10.43;5.57;;;;;;;;;;5001808;28;98586;-77
2023/06/25 01:34:55;;;;;;;12.90;6.78;;;;;;;;;;4991089;28;101410;-76
2023/06/25 01:37:21;;;;;;;12.55;7.18;;;;;;;;;;4986360;28;98919;-73
2023/06/25 01:39:49;;;;;;;13.77;7.03;;;;;;;;;;4990387;28;98966;-76
2023/06/25 01:42:16;;;;;;;13.70;7.65;;;;;;;;;;4967679;28;98585;-74
2023/06/25 01:44:43;;;;;;;12.75;7.05;;;;;;;;;;4976224;28;99300;-74
2023/06/25 01:47:09;;;;;;;13.13;6.28;;;;;;;;;;4985198;28;100605;-75
2023/06/25 01:49:36;;;;;;;11.05;5.85;;;;;;;;;;4972281;28;101967;-75
2023/06/25 01:52:04;;;;;;;12.57;6.53;;;;;;;;;;4984123;28;98601;-74
2023/06/25 01:54:31;;;;;;;11.10;6.03;;;;;;;;;;4984537;28;101411;-74
2023/06/25 01:56:59;;;;;;;10.70;5.78;;;;;;;;;;4984193;28;101722;-76
2023/06/25 01:59:25;;;;;;;10.95;6.28;;;;;;;;;;4983784;28;98744;-76
2023/06/25 02:01:52;;;;;;;11.52;6.70;;;;;;;;;;4979129;28;101303;-75
2023/06/25 02:04:19;;;;;;;;;;;;;;;;;;4970640;28;98509;-75
2023/06/25 02:06:46;;;;;;;12.57;6.78;;;;;;;;;;4975846;28;100680;-75
2023/06/25 02:09:15;;;;;;;13.90;6.18;;;;;;;;;;4984546;28;100239;-75
2023/06/25 02:11:42;;;;;;;11.82;5.45;;;;;;;;;;4986406;28;99588;-75
2023/06/25 02:14:09;;;;;;;13.43;6.50;;;;;;;;;;4983429;28;100238;-75
2023/06/25 02:16:35;;;;;;;13.10;7.35;;;;;;;;;;4980452;28;98426;-75
2023/06/25 02:19:02;;;;;;;12.63;6.68;;;;;;;;;;4991360;28;98539;-75
2023/06/25 02:21:29;;;;;;;11.95;6.43;;;;;;;;;;4983078;28;99864;-74
2023/06/25 02:23:55;;;;;;;12.25;7.15;;;;;;;;;;4988343;28;100143;-75
2023/06/25 02:26:22;;;;;;;13.27;6.93;;;;;;;;;;4986018;28;99433;-76
2023/06/25 02:28:49;;;;;;;13.13;6.45;;;;;;;;;;4985219;28;99175;-74
2023/06/25 02:31:15;;;;;;;11.52;6.18;;;;;;;;;;4985587;28;98593;-75
2023/06/25 02:33:42;;;;;;;12.88;6.60;;;;;;;;;;4993396;28;105927;-75
2023/06/25 02:36:08;;;;;;;12.20;6.72;;;;;;;;;;4983426;28;100655;-75
2023/06/25 02:38:35;;;;;;;11.60;6.68;;;;;;;;;;4979767;28;98971;-75
2023/06/25 02:41:02;;;;;;;12.70;7.28;;;;;;;;;;4972126;28;99186;-75
2023/06/25 02:43:29;;;;;;;13.52;7.88;;;;;;;;;;4984438;28;99277;-75
2023/06/25 02:45:55;;;;;;;12.95;7.70;;;;;;;;;;4986679;28;98658;-75
2023/06/25 02:48:23;;;;;;;12.95;7.00;;;;;;;;;;4996844;28;102225;-75
2023/06/25 02:50:49;;;;;;;14.32;7.75;;;;;;;;;;4979078;28;97774;-75
2023/06/25 02:53:16;;;;;;;14.02;7.28;;;;;;;;;;4983269;28;100814;-76
2023/06/25 02:55:42;;;;;;;11.75;6.68;;;;;;;;;;4984400;28;103677;-75
2023/06/25 02:58:09;;;;;;;13.50;7.65;;;;;;;;;;4977909;28;99306;-74
2023/06/25 03:00:36;;;;;;;13.27;6.90;;;;;;;;;;4981870;28;102040;-75
2023/06/25 03:03:03;;;;;;;14.75;6.57;;;;;;;;;;4985508;28;102272;-75
2023/06/25 03:05:30;;;;;;;12.18;6.78;;;;;;;;;;4984864;28;98571;-75
2023/06/25 03:07:58;;;;;;;15.27;7.07;;;;;;;;;;4999738;28;101944;-75
2023/06/25 03:10:29;;;;;;;11.90;6.65;;;;;;;;;;4966440;28;98879;-75
2023/06/25 03:12:56;;;;;;;11.80;6.60;;;;;;;;;;4996693;28;101916;-76
2023/06/25 03:15:23;;;;;;;12.05;7.00;;;;;;;;;;4982608;28;101476;-75
2023/06/25 03:17:50;;;;;;;12.60;6.35;;;;;;;;;;4988675;28;99055;-75
2023/06/25 03:20:17;;;;;;;11.50;6.28;;;;;;;;;;4986151;28;101243;-76
2023/06/25 03:22:44;;;;;;;12.07;6.22;;;;;;;;;;4983921;28;100826;-75
2023/06/25 03:25:11;;;;;;;12.00;6.05;;;;;;;;;;4983095;28;100449;-75
2023/06/25 03:27:42;;;;;;;12.07;6.13;;;;;;;;;;4986002;28;106242;-75
2023/06/25 03:30:09;;;;;;;9.68;5.10;;;;;;;;;;4983395;28;98596;-76
2023/06/25 03:32:35;;;;;;;10.73;5.88;;;;;;;;;;4987219;28;98775;-76
2023/06/25 03:35:02;;;;;;;11.82;5.80;;;;;;;;;;4985708;28;101527;-76
2023/06/25 03:37:30;;;;;;;10.65;5.82;;;;;;;;;;4981502;28;100025;-75
2023/06/25 03:39:57;;;;;;;9.23;5.50;;;;;;;;;;4975501;28;101213;-73
2023/06/25 03:42:24;;;;;;;11.98;5.30;;;;;;;;;;4976016;28;101666;-75
2023/06/25 03:44:54;;;;;;;12.80;6.22;;;;;;;;;;4972733;28;98509;-74
2023/06/25 03:47:25;;;;;;;13.57;7.57;;;;;;;;;;4982567;28;101228;-75
2023/06/25 03:49:52;;;;;;;11.57;6.72;;;;;;;;;;4995771;28;101237;-75
2023/06/25 03:52:19;;;;;;;12.65;6.85;;;;;;;;;;4983296;28;99250;-74
2023/06/25 03:54:46;;;;;;;12.95;6.80;;;;;;;;;;4974346;28;101842;-75
2023/06/25 03:57:12;;;;;;;12.88;7.22;;;;;;;;;;4982861;28;98626;-75
2023/06/25 03:59:39;;;;;;;11.63;7.55;;;;;;;;;;4983046;28;98679;-75
2023/06/25 04:02:05;;;;;;;13.15;7.43;;;;;;;;;;4982057;28;100669;-75
2023/06/25 04:04:33;;;;;;;14.52;7.90;;;;;;;;;;4992225;28;97822;-75
2023/06/25 04:07:00;;;;;;;12.73;7.68;;;;;;;;;;4964938;28;99403;-75
2023/06/25 04:09:27;;;;;;;;;;;;;;;;;;4976296;28;102130;-74
2023/06/25 04:11:54;;;;;;;13.93;7.30;;;;;;;;;;4986819;28;99297;-75
2023/06/25 04:14:21;;;;;;;12.48;6.88;;;;;;;;;;4981752;28;99053;-74
2023/06/25 04:16:47;;;;;;;10.98;6.05;;;;;;;;;;4977585;28;98840;-75
2023/06/25 04:19:14;;;;;;;12.32;6.45;;;;;;;;;;4963762;28;100069;-74
2023/06/25 04:21:40;;;;;;;11.80;6.25;;;;;;;;;;4981199;28;101957;-75
2023/06/25 04:24:07;;;;;;;14.23;6.05;;;;;;;;;;4976561;28;98736;-75
2023/06/25 04:26:33;;;;;;;10.30;5.78;;;;;;;;;;4987465;28;98718;-75
2023/06/25 04:29:02;;;;;;;13.98;6.78;;;;;;;;;;4985681;28;101235;-75
2023/06/25 04:31:30;;;;;;;11.63;6.68;;;;;;;;;;4984275;28;98653;-75
2023/06/25 04:33:57;;;;;;;12.05;6.95;;;;;;;;;;4974421;28;100010;-75
2023/06/25 04:36:23;;;;;;;11.48;6.15;;;;;;;;;;4988553;28;99691;-75
2023/06/25 04:38:55;;;;;;;13.43;6.15;;;;;;;;;;4969511;28;102446;-75
2023/06/25 04:41:26;;;;;;;11.68;6.18;;;;;;;;;;4967691;28;99515;-75
2023/06/25 04:43:53;;;;;;;12.90;7.07;;;;;;;;;;4985036;28;98538;-75
2023/06/25 04:46:20;;;;;;;13.65;7.80;;;;;;;;;;4985065;28;101660;-74
2023/06/25 04:48:47;;;;;;;15.43;7.22;;;;;;;;;;4984754;28;101538;-74
2023/06/25 04:51:13;;;;;;;11.82;6.60;;;;;;;;;;4981032;28;99044;-74
2023/06/25 04:53:40;;;;;;;11.40;6.57;;;;;;;;;;4982598;28;98782;-74
2023/06/25 04:56:07;;;;;;;11.32;6.25;;;;;;;;;;4986639;28;98967;-74
2023/06/25 04:58:35;;;;;;;13.65;7.47;;;;;;;;;;4987038;28;98945;-75
2023/06/25 05:01:02;;;;;;;12.43;6.53;;;;;;;;;;4986008;28;100059;-76
2023/06/25 05:03:29;;;;;;;14.10;6.80;;;;;;;;;;4989108;28;98688;-76
2023/06/25 05:05:56;;;;;;;14.82;6.93;;;;;;;;;;4979939;28;98983;-76
2023/06/25 05:08:23;;;;;;;14.23;6.57;;;;;;;;;;4986822;28;99312;-76
2023/06/25 05:10:49;;;;;;;11.98;6.28;;;;;;;;;;4986838;28;98579;-76
2023/06/25 05:13:16;;;;;;;13.32;6.32;;;;;;;;;;4986308;28;99031;-75
2023/06/25 05:15:42;;;;;;;12.10;6.53;;;;;;;;;;4983635;28;104037;-75
2023/06/25 05:18:10;;;;;;;11.07;6.15;;;;;;;;;;4985159;28;101711;-75
2023/06/25 05:20:37;;;;;;;13.15;6.55;;;;;;;;;;4985961;28;99219;-75
2023/06/25 05:23:03;;;;;;;;;;;;;;;;;;4987164;28;98471;-75
2023/06/25 05:25:31;;;;;;;14.15;6.93;;;;;;;;;;4987027;28;99483;-75
2023/06/25 05:27:57;;;;;;;;;;;;;;;;;;4986999;28;99173;-75
2023/06/25 05:30:24;;;;;;;13.52;6.20;;;;;;;;;;4980023;28;98558;-75
2023/06/25 05:32:50;;;;;;;11.18;6.18;;;;;;;;;;4984381;28;99817;-75
2023/06/25 05:35:17;;;;;;;11.38;6.60;;;;;;;;;;4988968;28;99237;-74
2023/06/25 05:37:44;;;;;;;12.45;6.25;;;;;;;;;;4969744;28;98946;-75
2023/06/25 05:40:10;;;;;;;13.68;7.28;;;;;;;;;;4965316;28;100806;-77
2023/06/25 05:42:37;;;;;;;12.75;5.82;;;;;;;;;;4973901;28;97883;-75
2023/06/25 05:45:04;;;;;;;12.98;7.30;;;;;;;;;;4986369;28;99989;-78
2023/06/25 05:47:31;;;;;;;16.95;10.68;;;;;;;;;;4975024;28;98570;-77
2023/06/25 05:49:57;;;;;;;15.95;9.82;;;;;;;;;;4977168;28;99332;-75
2023/06/25 05:52:24;;;;;;;14.73;8.13;;;;;;;;;;4973752;28;99501;-75
2023/06/25 05:54:50;;;;;;;13.65;6.63;;;;;;;;;;4985182;28;99729;-75
2023/06/25 05:57:17;;;;;;;14.32;8.73;;;;;;;;;;4985613;28;98564;-74
2023/06/25 05:59:43;;;;;;;15.52;9.13;;;;;;;;;;4984357;28;99298;-75
2023/06/25 06:02:10;;;;;;;15.00;8.57;;;;;;;;;;4977042;28;98820;-75
2023/06/25 06:04:37;;;;;;;16.25;9.50;;;;;;;;;;4993194;28;98890;-74
2023/06/25 06:07:03;;;;;;;18.25;10.38;;;;;;;;;;4966777;28;99493;-75
2023/06/25 06:09:30;;;;;;;17.70;10.25;;;;;;;;;;4966378;28;98556;-77
2023/06/25 06:11:56;;;;;;;15.00;7.57;;;;;;;;;;4967602;28;98856;-76
2023/06/25 06:14:23;;;;;;;15.93;9.63;;;;;;;;;;4966209;28;100379;-75
2023/06/25 06:16:50;;;;;;;15.80;8.82;;;;;;;;;;4980278;28;99016;-75
2023/06/25 06:19:16;;;;;;;14.57;8.40;;;;;;;;;;4979677;28;101648;-75
2023/06/25 06:21:43;;;;;;;15.13;8.90;;;;;;;;;;4972575;28;105341;-74
2023/06/25 06:24:09;;;;;;;15.15;8.60;;;;;;;;;;4965401;28;98938;-75
2023/06/25 06:26:36;;;;;;;16.17;9.10;;;;;;;;;;4965348;28;99112;-76
2023/06/25 06:29:03;;;;;;;13.68;6.93;;;;;;;;;;4975735;28;98584;-74
2023/06/25 06:31:31;;;;;;;12.85;6.15;;;;;;;;;;4971289;28;99455;-77
2023/06/25 06:33:58;;;;;;;13.38;6.40;;;;;;;;;;4980755;28;99539;-75
2023/06/25 06:36:24;;;;;;;12.70;6.28;;;;;;;;;;4985607;28;98969;-76
2023/06/25 06:38:51;;;;;;;12.05;5.90;;;;;;;;;;4977861;28;99832;-76
2023/06/25 06:41:17;;;;;;;12.35;6.70;;;;;;;;;;4983508;28;100083;-76
2023/06/25 06:43:44;;;;;;;13.43;5.88;;;;;;;;;;4988867;28;99342;-76
2023/06/25 06:46:10;;;;;;;14.25;6.38;;;;;;;;;;4983581;28;100104;-78
2023/06/25 06:48:37;;;;;;;11.23;5.95;;;;;;;;;;4984698;28;99122;-78
2023/06/25 06:51:03;;;;;;;11.32;6.30;;;;;;;;;;4984979;28;99380;-78
2023/06/25 06:53:30;;;;;;;11.50;6.45;;;;;;;;;;4982455;28;100487;-76
2023/06/25 06:55:57;;;;;;;11.38;6.03;;;;;;;;;;4985928;28;97943;-77
2023/06/25 06:58:23;;;;;;;14.48;6.57;;;;;;;;;;4971975;28;98514;-76
2023/06/25 07:00:50;;;;;;;11.52;5.55;;;;;;;;;;4984721;28;98695;-77
2023/06/25 07:03:17;;;;;;;12.48;6.60;;;;;;;;;;4978839;28;99309;-75
2023/06/25 07:05:44;;;;;;;12.32;6.18;;;;;;;;;;4991526;28;104712;-76
2023/06/25 07:08:11;;;;;;;11.18;5.13;;;;;;;;;;4975309;28;98779;-77
2023/06/25 07:10:37;;;;;;;10.50;5.93;;;;;;;;;;4993688;28;98737;-76
2023/06/25 07:13:04;;;;;;;11.02;5.57;;;;;;;;;;4982178;28;100422;-77
2023/06/25 07:15:31;;;;;;;10.07;5.15;;;;;;;;;;4981006;28;99093;-77
2023/06/25 07:17:57;;;;;;;11.27;6.30;;;;;;;;;;4972913;28;98705;-77
2023/06/25 07:20:24;;;;;;;11.02;5.88;;;;;;;;;;4971636;28;98444;-75
2023/06/25 07:22:51;;;;;;;11.65;6.25;;;;;;;;;;4974133;28;98530;-76
2023/06/25 07:25:17;;;;;;;13.05;6.18;;;;;;;;;;4987368;28;100690;-75
2023/06/25 07:27:44;;;;;;;15.02;5.20;;;;;;;;;;4984722;28;99227;-75
2023/06/25 07:30:10;;;;;;;11.90;5.70;;;;;;;;;;4985217;28;101051;-77
2023/06/25 07:32:37;;;;;;;14.30;8.05;;;;;;;;;;4964169;28;100428;-76
2023/06/25 07:35:04;;;;;;;13.73;6.57;;;;;;;;;;4980177;28;98523;-76
2023/06/25 07:37:30;;;;;;;16.13;7.20;;;;;;;;;;4985723;28;100555;-75
2023/06/25 07:39:57;;;;;;;15.15;8.82;;;;;;;;;;4983037;28;101760;-75
2023/06/25 07:42:23;;;;;;;12.82;5.82;;;;;;;;;;4981075;28;99328;-75
2023/06/25 07:44:50;;;;;;;13.40;6.97;;;;;;;;;;4972226;28;99770;-76
2023/06/25 07:47:22;;;;;;;13.07;6.63;;;;;;;;;;4984914;28;98983;-78
2023/06/25 07:49:49;;;;;;;11.75;6.13;;;;;;;;;;4980845;28;101320;-78
2023/06/25 07:52:16;;;;;;;11.77;6.25;;;;;;;;;;4975640;28;101283;-75
2023/06/25 07:54:43;;;;;;;13.48;8.07;;;;;;;;;;4981952;28;99225;-75
2023/06/25 07:57:09;;;;;;;18.85;8.30;;;;;;;;;;4982761;28;100271;-75
2023/06/25 07:59:36;;;;;;;13.27;7.28;;;;;;;;;;4985081;28;99029;-76
2023/06/25 08:02:08;;;;;;;13.45;6.90;;;;;;;;;;4988025;28;98578;-76
2023/06/25 08:04:35;;;;;;;16.27;7.85;;;;;;;;;;4987837;28;98887;-76
2023/06/25 08:07:02;;;;;;;12.43;7.30;;;;;;;;;;4991447;28;99412;-75
2023/06/25 08:09:29;;;;;;;14.30;7.72;;;;;;;;;;4986609;28;98515;-76
2023/06/25 08:11:55;;;;;;;12.93;7.32;;;;;;;;;;4985628;28;99031;-77
2023/06/25 08:14:22;;;;;;;15.20;7.35;;;;;;;;;;4978102;28;98796;-78
2023/06/25 08:16:49;;;;;;;14.68;7.00;;;;;;;;;;4984257;28;99875;-76
2023/06/25 08:19:15;;;;;;;12.43;6.63;;;;;;;;;;4976831;28;99156;-76
2023/06/25 08:21:42;;;;;;;12.60;6.82;;;;;;;;;;4975247;28;98677;-79
2023/06/25 08:24:09;;;;;;;11.88;6.47;;;;;;;;;;4974811;28;100161;-76
2023/06/25 08:26:35;;;;;;;10.23;5.40;;;;;;;;;;4972844;28;99316;-78
2023/06/25 08:29:02;;;;;;;11.52;6.10;;;;;;;;;;4974367;28;98542;-77
2023/06/25 08:31:29;;;;;;;;;;;;;;;;;;4988294;28;98875;-78
2023/06/25 08:33:55;;;;;;;11.50;5.60;;;;;;;;;;4982432;28;98458;-78
2023/06/25 08:36:22;;;;;;;11.23;6.40;;;;;;;;;;4975016;28;99119;-77
2023/06/25 08:38:48;;;;;;;12.02;5.22;;;;;;;;;;4981758;28;99023;-78
2023/06/25 08:41:15;;;;;;;11.05;6.05;;;;;;;;;;4984012;28;99584;-76
2023/06/25 08:43:42;;;;;;;10.52;5.07;;;;;;;;;;4979069;28;104066;-79
2023/06/25 08:46:09;;;;;;;17.13;6.07;;;;;;;;;;4986791;28;99905;-79
2023/06/25 08:48:36;;;;;;;9.93;4.97;;;;;;;;;;4986385;28;99076;-82
2023/06/25 08:51:06;;;;;;;10.55;4.40;;;;;;;;;;4986431;28;99059;-80
2023/06/25 08:53:34;;;;;;;8.73;3.45;;;;;;;;;;4979199;28;99502;-79
2023/06/25 08:56:02;;;;;;;7.68;3.38;;;;;;;;;;4966665;28;98856;-80
2023/06/25 08:58:29;;;;;;;7.57;3.30;;;;;;;;;;4967284;28;98424;-79
2023/06/25 09:00:55;;;;;;;9.75;3.42;;;;;;;;;;4967216;28;99062;-79
2023/06/25 09:03:22;;;;;;;7.60;3.13;;;;;;;;;;4973124;28;99206;-78
2023/06/25 09:05:53;;;;;;;7.88;3.40;;;;;;;;;;4979052;28;100129;-78
2023/06/25 09:08:21;;;;;;;8.18;2.83;;;;;;;;;;4991641;28;98728;-78
2023/06/25 09:10:51;;;;;;;7.70;3.20;;;;;;;;;;4967623;28;99016;-79
2023/06/25 09:13:24;;;;;;;7.95;3.28;;;;;;;;;;4978579;28;99919;-80
2023/06/25 09:15:51;;;;;;;7.30;3.10;;;;;;;;;;4982242;28;99039;-80
2023/06/25 09:18:23;;;;;;;8.40;3.70;;;;;;;;;;4979277;28;99010;-78
2023/06/25 09:20:50;;;;;;;6.95;2.80;;;;;;;;;;4968989;28;99206;-79
2023/06/25 09:23:22;;;;;;;9.63;3.33;;;;;;;;;;4994397;28;99996;-79
2023/06/25 09:25:52;;;;;;;8.35;3.53;;;;;;;;;;4967348;28;101266;-80
2023/06/25 09:28:19;;;;;;;8.65;3.33;;;;;;;;;;4967600;28;98559;-80
2023/06/25 09:30:46;;;;;;;9.52;3.72;;;;;;;;;;4966974;28;99356;-79
2023/06/25 09:33:13;;;;;;;8.63;3.20;;;;;;;;;;4973809;28;101639;-80
2023/06/25 09:35:40;;;;;;;;;;;;;;;;;;4976534;28;98586;-80
2023/06/25 09:38:07;;;;;;;6.35;2.90;;;;;;;;;;4990373;28;113737;-78
2023/06/25 09:40:33;;;;;;;7.30;2.97;;;;;;;;;;4971545;28;99289;-78
2023/06/25 09:43:00;;;;;;;8.90;3.17;;;;;;;;;;4996075;28;99596;-78
2023/06/25 09:45:27;;;;;;;7.80;3.30;;;;;;;;;;4993543;28;98643;-80
2023/06/25 09:47:55;;;;;;;8.65;3.13;;;;;;;;;;4992016;28;98164;-78
2023/06/25 09:50:24;;;;;;;7.80;3.00;;;;;;;;;;4988218;28;98833;-80
2023/06/25 09:52:54;;;;;;;8.77;3.38;;;;;;;;;;4981242;28;100716;-80
2023/06/25 09:55:21;;;;;;;7.05;3.22;;;;;;;;;;4979680;28;99219;-79
2023/06/25 09:57:48;;;;;;;7.57;3.28;;;;;;;;;;4992358;28;100100;-77
2023/06/25 10:00:16;;;;;;;8.07;3.10;;;;;;;;;;4982646;28;99781;-77
2023/06/25 10:02:44;;;;;;;10.50;3.78;;;;;;;;;;4992744;28;99266;-78
2023/06/25 10:05:11;;;;;;;7.10;3.40;;;;;;;;;;5000194;28;98646;-77
2023/06/25 10:07:38;;;;;;;8.70;3.35;;;;;;;;;;4995779;28;98596;-77
2023/06/25 10:10:05;;;;;;;;;;;;;;;;;;5002633;28;98697;-79
2023/06/25 10:12:37;;;;;;;8.10;3.40;;;;;;;;;;4988552;28;101019;-77
2023/06/25 10:15:04;;;;;;;11.73;3.40;;;;;;;;;;4985780;28;98608;-77
2023/06/25 10:17:31;;;;;;;8.77;3.00;;;;;;;;;;4985420;28;101824;-79
2023/06/25 10:19:58;;;;;;;;;;;;;;;;;;4987820;28;101338;-77
2023/06/25 10:22:26;;;;;;;7.78;2.90;;;;;;;;;;4989360;28;119532;-79
2023/06/25 10:24:53;;;;;;;8.27;3.13;;;;;;;;;;4981372;28;99142;-79
2023/06/25 10:27:20;;;;;;;8.73;3.13;;;;;;;;;;4987427;28;99051;-78
2023/06/25 10:29:47;;;;;;;12.07;3.13;;;;;;;;;;4984834;28;99136;-78
2023/06/25 10:32:13;;;;;;;18.40;3.05;;;;;;;;;;4991581;28;100312;-78
2023/06/25 10:34:40;;;;;;;18.30;3.25;;;;;;;;;;4985367;28;98677;-78
2023/06/25 10:37:08;;;;;;;17.25;3.45;;;;;;;;;;4977609;28;100067;-78
2023/06/25 10:39:38;;;;;;;73.28;6.45;;;;;;;;;;4974583;28;100247;-80
2023/06/25 10:42:05;;;;;;;90.35;7.35;;;;;;;;;;4977463;28;100530;-80
2023/06/25 10:44:32;;;;;;;70.25;5.45;;;;;;;;;;4988403;28;100280;-80
2023/06/25 10:47:05;;;;;;;43.63;5.00;;;;;;;;;;4985995;28;99802;-80
2023/06/25 10:49:33;;;;;;;27.58;4.15;;;;;;;;;;4972264;28;103226;-80
2023/06/25 10:52:03;;;;;;;38.28;4.03;;;;;;;;;;4977758;28;99247;-79
2023/06/25 10:54:30;;;;;;;20.85;3.58;;;;;;;;;;4973564;28;98901;-80
2023/06/25 10:57:11;;;;;;;15.98;3.55;;;;;;;;;;4983316;28;99610;-79
2023/06/25 10:59:38;;;;;;;13.57;3.20;;;;;;;;;;4992310;28;102485;-79
2023/06/25 11:02:16;;;;;;;13.88;2.95;;;;;;;;;;4983982;28;98014;-80
2023/06/25 11:04:49;;;;;;;11.75;2.80;;;;;;;;;;4985743;28;99022;-79
2023/06/25 11:07:15;;;;;;;;;;;;;;;;;;4993286;28;99075;-78
2023/06/25 11:09:42;;;;;;;8.63;2.72;;;;;;;;;;4991144;28;131106;-79
2023/06/25 11:12:09;;;;;;;10.70;3.10;;;;;;;;;;4988048;28;102318;-78
2023/06/25 11:14:35;;;;;;;7.30;2.50;;;;;;;;;;4979683;28;99079;-79
2023/06/25 11:17:02;;;;;;;7.10;2.90;;;;;;;;;;4984569;28;99738;-79
2023/06/25 11:19:29;;;;;;;6.80;2.63;;;;;;;;;;4980689;28;99005;-78
2023/06/25 11:21:56;;;;;;;9.45;2.90;;;;;;;;;;4985584;28;98587;-80
2023/06/25 11:24:22;;;;;;;10.85;3.22;;;;;;;;;;4986914;28;99941;-80
2023/06/25 11:26:55;;;;;;;6.40;2.75;;;;;;;;;;4980309;28;98008;-79
2023/06/25 11:29:22;;;;;;;7.85;2.92;;;;;;;;;;4968750;28;98663;-77
2023/06/25 11:31:50;;;;;;;8.18;2.80;;;;;;;;;;4971248;28;99665;-78
2023/06/25 11:34:20;;;;;;;6.80;2.88;;;;;;;;;;4975240;28;99815;-78
2023/06/25 11:36:47;;;;;;;7.35;2.60;;;;;;;;;;4976409;28;102159;-78
2023/06/25 11:39:15;;;;;;;6.43;2.72;;;;;;;;;;4977344;28;98915;-79
2023/06/25 11:41:42;;;;;;;5.53;2.70;;;;;;;;;;4971226;28;99235;-78
2023/06/25 11:44:18;;;;;;;6.00;2.80;;;;;;;;;;4964786;28;99566;-78
2023/06/25 11:46:49;;;;;;;6.72;2.95;;;;;;;;;;4975646;28;99318;-80
2023/06/25 11:49:18;;;;;;;7.22;3.13;;;;;;;;;;4982442;28;101897;-80
2023/06/25 11:51:44;;;;;;;6.93;3.10;;;;;;;;;;4979688;28;103117;-80
2023/06/25 11:54:11;;;;;;;;;;;;;;;;;;4983673;28;98692;-80
2023/06/25 11:56:38;;;;;;;5.63;2.65;;;;;;;;;;4984621;28;100436;-80
2023/06/25 11:59:04;;;;;;;5.05;2.53;;;;;;;;;;4982879;28;99762;-79
2023/06/25 12:01:31;;;;;;;5.45;2.47;;;;;;;;;;4988407;28;98629;-79
2023/06/25 12:03:58;;;;;;;6.28;2.70;;;;;;;;;;4977353;28;98954;-80
2023/06/25 12:06:25;;;;;;;5.25;2.63;;;;;;;;;;4982487;28;102256;-79
2023/06/25 12:08:52;;;;;;;6.15;2.50;;;;;;;;;;4976487;28;98570;-79
2023/06/25 12:11:18;;;;;;;5.32;2.50;;;;;;;;;;4982358;28;99123;-79
2023/06/25 12:13:47;;;;;;;6.97;2.90;;;;;;;;;;4977846;28;98808;-78
2023/06/25 12:16:14;;;;;;;5.68;2.63;;;;;;;;;;4986971;28;98737;-80
2023/06/25 12:18:40;;;;;;;5.35;2.47;;;;;;;;;;4980848;28;99980;-80
2023/06/25 12:21:07;;;;;;;5.80;2.67;;;;;;;;;;4984164;28;99841;-80
2023/06/25 12:23:34;;;;;;;5.38;2.67;;;;;;;;;;4971165;28;99397;-79
2023/06/25 12:26:01;;;;;;;6.10;3.08;;;;;;;;;;4967596;28;99949;-80
2023/06/25 12:28:27;;;;;;;6.35;2.70;;;;;;;;;;4982946;28;98947;-79
2023/06/25 12:30:54;;;;;;;6.13;2.75;;;;;;;;;;4986620;28;99954;-80
2023/06/25 12:33:21;;;;;;;5.20;2.75;;;;;;;;;;4977577;28;98508;-79
2023/06/25 12:35:47;;;;;;;6.00;2.85;;;;;;;;;;4970009;28;100971;-80
2023/06/25 12:38:14;;;;;;;5.03;2.40;;;;;;;;;;4981839;28;99278;-79
2023/06/25 12:40:41;;;;;;;5.82;2.50;;;;;;;;;;4964548;28;97834;-79
2023/06/25 12:43:07;;;;;;;5.93;2.90;;;;;;;;;;4965790;28;98763;-80
2023/06/25 12:45:34;;;;;;;5.60;2.60;;;;;;;;;;4966577;28;99031;-79
2023/06/25 12:48:01;;;;;;;5.13;2.60;;;;;;;;;;4966578;28;99352;-80
2023/06/25 12:50:27;;;;;;;5.15;2.67;;;;;;;;;;4969096;28;99630;-80
2023/06/25 12:52:54;;;;;;;6.80;2.80;;;;;;;;;;4979656;28;100450;-78
2023/06/25 12:55:20;;;;;;;5.75;2.78;;;;;;;;;;4966270;28;100152;-80
2023/06/25 12:57:47;;;;;;;6.13;2.63;;;;;;;;;;4982100;28;101135;-81
2023/06/25 13:00:13;;;;;;;6.30;2.72;;;;;;;;;;4987104;28;98590;-78
2023/06/25 13:02:59;;;;;;;7.47;3.00;;;;;;;;;;4985478;28;101697;-77
2023/06/25 13:05:25;;;;;;;7.40;2.75;;;;;;;;;;4984671;28;98330;-79
2023/06/25 13:07:52;;;;;;;7.22;2.90;;;;;;;;;;4985270;28;98660;-78
2023/06/25 13:10:18;;;;;;;9.65;3.25;;;;;;;;;;4967775;28;99391;-78
2023/06/25 13:12:45;;;;;;;7.50;3.10;;;;;;;;;;4978609;28;100919;-77
2023/06/25 13:15:11;;;;;;;;;;;;;;;;;;4990685;28;98871;-78
2023/06/25 13:17:38;;;;;;;6.55;2.60;;;;;;;;;;4984368;28;99082;-77
2023/06/25 13:20:05;;;;;;;8.85;2.97;;;;;;;;;;4987149;28;98832;-76
2023/06/25 13:22:32;;;;;;;7.13;3.28;;;;;;;;;;4987794;28;99253;-78
2023/06/25 13:24:58;;;;;;;8.82;3.22;;;;;;;;;;4986055;28;100191;-77
2023/06/25 13:27:25;;;;;;;6.25;3.00;;;;;;;;;;4977428;28;98667;-76
2023/06/25 13:29:52;;;;;;;8.60;3.30;;;;;;;;;;4967016;28;98776;-76
2023/06/25 13:32:18;;;;;;;6.78;3.15;;;;;;;;;;4972943;28;99118;-79
2023/06/25 13:34:45;;;;;;;7.63;3.20;;;;;;;;;;4977142;28;98577;-78
2023/06/25 13:37:11;;;;;;;8.00;3.00;;;;;;;;;;4967752;28;100088;-79
2023/06/25 13:39:38;;;;;;;7.25;3.20;;;;;;;;;;4985354;28;99354;-78
2023/06/25 13:42:05;;;;;;;6.40;3.15;;;;;;;;;;4986941;28;99985;-78
2023/06/25 13:44:32;;;;;;;8.05;3.20;;;;;;;;;;4983561;28;99252;-79
2023/06/25 13:46:59;;;;;;;7.57;3.50;;;;;;;;;;4978237;28;98532;-78
2023/06/25 13:49:25;;;;;;;6.70;3.10;;;;;;;;;;4985638;28;98849;-78
2023/06/25 13:51:52;;;;;;;6.82;3.17;;;;;;;;;;4982714;28;100051;-78
2023/06/25 13:54:18;;;;;;;6.40;3.20;;;;;;;;;;4976416;28;98890;-77
2023/06/25 13:56:47;;;;;;;6.82;3.10;;;;;;;;;;4983995;28;98983;-78
2023/06/25 13:59:13;;;;;;;7.88;3.40;;;;;;;;;;4975434;28;98626;-77
2023/06/25 14:01:42;;;;;;;6.80;3.92;;;;;;;;;;4970157;28;99772;-77
2023/06/25 14:04:09;;;;;;;6.85;3.20;;;;;;;;;;4977336;28;99376;-77
2023/06/25 14:06:36;;;;;;;7.00;3.25;;;;;;;;;;4986974;28;98666;-77
2023/06/25 14:09:03;;;;;;;7.47;3.20;;;;;;;;;;4989656;28;100713;-76
2023/06/25 14:11:29;;;;;;;6.85;3.03;;;;;;;;;;4970592;28;99636;-79
2023/06/25 14:13:56;;;;;;;7.22;3.50;;;;;;;;;;4969040;28;99219;-77
2023/06/25 14:16:22;;;;;;;6.03;3.10;;;;;;;;;;4965578;28;99229;-79
2023/06/25 14:18:49;;;;;;;6.50;3.28;;;;;;;;;;4975906;28;98818;-77
2023/06/25 14:21:16;;;;;;;7.22;3.40;;;;;;;;;;4976352;28;98805;-79
2023/06/25 14:23:45;;;;;;;6.65;3.13;;;;;;;;;;4988144;28;103823;-77
2023/06/25 14:26:12;;;;;;;7.25;3.38;;;;;;;;;;4965789;28;99393;-79
2023/06/25 14:28:38;;;;;;;;;;;;;;;;;;4986037;28;99408;-77
2023/06/25 14:31:05;;;;;;;6.78;3.17;;;;;;;;;;4984656;28;99368;-78
2023/06/25 14:33:33;;;;;;;5.45;2.80;;;;;;;;;;4984542;28;98528;-79
2023/06/25 14:36:00;;;;;;;5.82;2.90;;;;;;;;;;4974551;28;99063;-79